Aérodrome :
LOGIN :

S'inscrire | Disclaimer

   EN    FR    IT 

 










Légende :    VFR   VFR Marginal   IFR   IFR Intensif   IFR Très Intensif
Visi : 
Plafond : 
>= 8 km
>= 3000ft
5 à 8 km
1000 à 3000 ft
1500m à 5 km
500 à 1000 ft
800 à 1500m
200 à 500 ft
< 800m
< 200 ft
Symboles :   Orages  Brouillard  Fortes neiges  Fortes précipitations  Vent > 20 kt
SIGMETs :   Divers  Orages  Givrage  Turbulence  Onde Orograph.  Cendres Volcan.







- Altitude de l'aérodrome : 373 ft
- Code IATA : OZH


UKDE - Mokraya

DERNIER METAR :
  • 201900Z 14003MPS 9999 BKN013 M02/M03 Q1020 R02R/210370 NOSIG

METARs EXPIRÉS :
  • 201830Z 14004MPS 9999 BKN011 M02/M03 Q1020 R02R/210370 NOSIG
  • 201800Z 13003MPS 9999 BKN013 M02/M04 Q1020 R02R/210370 NOSIG
  • 201730Z 13004MPS CAVOK M02/M04 Q1021 R02R/210370 NOSIG
  • 201700Z 12004MPS CAVOK M02/M04 Q1021 R02R/210370 NOSIG
  • 201630Z 11002MPS CAVOK M02/M05 Q1021 R02R/210370 NOSIG
  • 201600Z 12002MPS CAVOK M02/M05 Q1021 R02R/210370 NOSIG

TAF TAF UKDE
Valide du 20 à 18h jusqu'au 21 à 03h UTC


201701Z 2018/2103 13004MPS 4000 BR BKN010 TXM02/2018Z TNM04/2103Z
TEMPO 2018/2021 1000 SHSN BR BKN005 BKN013CB
TEMPO 2021/2103 0700 -SN FZFG VV003
FIR UKDV / Europe



MET'MAP, la Météo Aéronautique d'un coup d'oeil ! - Copyright ORBIFLY Décembre 2007 - Disclaimer

ORBIFLY MET'MAP TEAM :

Programmation & Développement : Alexandra Zaïnal
Conception & Développement : Baudouin d'Aumeries
Co-Programmation & Développement : Marc-Olivier Méhu
Soutien technique & logistique : Manuel Goepfert

Contact : metmap@orbifly.com




SOURCES & CREDITS :

   NOAA